createdAt,value
2019-04-28T00:24:01.655Z,31.91
2019-04-28T00:26:35.662Z,31.96
2019-04-28T00:29:11.103Z,32.06
2019-04-28T00:31:44.050Z,32.13
2019-04-28T00:34:18.590Z,32.21
2019-04-28T00:36:52.467Z,32.35
2019-04-28T00:39:25.405Z,32.47
2019-04-28T00:41:58.353Z,32.60
2019-04-28T00:44:31.927Z,32.63
2019-04-28T00:47:05.631Z,32.69
2019-04-28T00:49:41.787Z,32.77
2019-04-28T00:52:14.619Z,32.86
2019-04-28T00:54:52.339Z,32.89
2019-04-28T00:57:24.861Z,32.94
2019-04-28T00:59:59.044Z,32.98
2019-04-28T01:02:33.251Z,32.95
2019-04-28T01:05:07.027Z,33.02
2019-04-28T01:07:41.622Z,32.89
2019-04-28T01:10:15.640Z,33.00
2019-04-28T01:12:50.978Z,33.13
2019-04-28T01:15:25.372Z,33.13
2019-04-28T01:17:58.234Z,33.13
2019-04-28T01:20:30.415Z,33.22
2019-04-28T01:23:03.078Z,33.28
2019-04-28T01:25:35.587Z,33.31
2019-04-28T01:28:15.909Z,33.42
2019-04-28T01:30:50.099Z,33.37
2019-04-28T01:33:25.501Z,33.37
2019-04-28T01:36:00.581Z,33.54
2019-04-28T01:38:33.493Z,33.42
2019-04-28T01:41:07.262Z,33.63
2019-04-28T01:43:41.743Z,33.57
2019-04-28T01:46:16.181Z,33.58
2019-04-28T01:48:49.816Z,33.60
2019-04-28T01:51:22.305Z,33.77
2019-04-28T01:53:54.819Z,33.60
2019-04-28T01:56:27.819Z,33.77
2019-04-28T01:59:00.358Z,33.80
2019-04-28T02:01:37.283Z,33.80
2019-04-28T02:04:10.164Z,33.82
2019-04-28T02:06:42.280Z,33.89
2019-04-28T02:09:16.542Z,33.79
2019-04-28T02:11:50.368Z,33.94
2019-04-28T02:14:22.912Z,33.77
2019-04-28T02:16:56.549Z,33.75
2019-04-28T02:19:32.921Z,33.71
2019-04-28T02:22:05.906Z,33.93
2019-04-28T02:24:40.512Z,33.83
2019-04-28T02:27:13.454Z,34.03
2019-04-28T02:29:46.128Z,34.01
2019-04-28T02:32:23.755Z,34.05
2019-04-28T02:34:53.879Z,34.08
2019-04-28T02:37:26.640Z,34.16
2019-04-28T02:40:03.410Z,34.09
2019-04-28T02:42:36.862Z,34.14
2019-04-28T02:45:11.706Z,34.13
2019-04-28T02:47:45.990Z,34.25
2019-04-28T02:50:21.233Z,34.18
2019-04-28T02:53:02.079Z,34.31
2019-04-28T02:55:35.414Z,34.27
2019-04-28T02:58:11.351Z,34.31
2019-04-28T03:01:00.983Z,34.27
2019-04-28T03:03:21.176Z,34.39
2019-04-28T03:05:53.781Z,34.56
2019-04-28T03:08:27.325Z,34.53
2019-04-28T03:11:04.994Z,34.58
2019-04-28T03:13:41.227Z,34.70
2019-04-28T03:16:17.452Z,34.59
2019-04-28T03:18:51.454Z,34.78
2019-04-28T03:21:23.982Z,34.68
2019-04-28T03:23:56.781Z,34.57
2019-04-28T03:26:32.016Z,34.60
2019-04-28T03:29:05.846Z,34.52
2019-04-28T03:32:03.754Z,34.43
2019-04-28T03:34:14.253Z,34.51
2019-04-28T03:36:46.375Z,34.83
2019-04-28T03:39:20.566Z,34.68
2019-04-28T03:41:54.610Z,34.87
2019-04-28T03:44:30.924Z,34.86
2019-04-28T03:47:05.576Z,34.81
2019-04-28T03:49:42.742Z,34.77
2019-04-28T03:52:13.893Z,34.60
2019-04-28T03:54:52.155Z,34.57
2019-04-28T03:57:24.408Z,34.88
2019-04-28T03:59:56.360Z,34.92
2019-04-28T04:02:31.190Z,35.06
2019-04-28T04:05:04.805Z,35.07
2019-04-28T04:07:37.426Z,35.10
2019-04-28T04:10:13.498Z,35.07
2019-04-28T04:12:45.753Z,35.17
2019-04-28T04:15:21.742Z,34.93
2019-04-28T04:17:57.743Z,35.05
2019-04-28T04:20:33.276Z,35.08
2019-04-28T04:23:07.014Z,34.88
2019-04-28T04:25:41.582Z,35.04
2019-04-28T04:28:14.658Z,35.19
2019-04-28T04:30:47.457Z,35.23
2019-04-28T04:33:21.478Z,35.15
2019-04-28T04:35:54.231Z,35.20
2019-04-28T04:38:27.397Z,35.28
2019-04-28T04:41:01.561Z,35.15
2019-04-28T04:43:34.660Z,34.98
2019-04-28T04:46:10.708Z,35.30
2019-04-28T04:48:44.970Z,35.39
2019-04-28T04:51:17.936Z,35.34
2019-04-28T04:53:51.438Z,35.42
2019-04-28T04:56:24.918Z,35.38
2019-04-28T04:59:02.176Z,35.28
2019-04-28T05:01:32.889Z,35.44
2019-04-28T05:04:09.579Z,35.53
2019-04-28T05:06:42.643Z,35.61
2019-04-28T05:09:15.986Z,35.42
2019-04-28T05:11:50.023Z,35.54
2019-04-28T05:14:24.238Z,35.69
2019-04-28T05:16:57.046Z,35.69
2019-04-28T05:19:29.865Z,35.79
2019-04-28T05:22:02.858Z,35.80
2019-04-28T05:24:36.876Z,35.86
2019-04-28T05:27:10.897Z,35.90
2019-04-28T05:29:44.747Z,35.88
2019-04-28T05:32:20.429Z,35.88
2019-04-28T05:34:53.924Z,35.54
2019-04-28T05:37:27.663Z,35.68
2019-04-28T05:40:00.897Z,35.78
2019-04-28T05:42:36.527Z,35.91
2019-04-28T05:45:10.401Z,35.70
2019-04-28T05:47:44.558Z,35.50
2019-04-28T05:50:25.851Z,35.62
2019-04-28T05:53:06.628Z,35.48
2019-04-28T05:55:45.341Z,35.80
2019-04-28T05:58:21.108Z,35.92
2019-04-28T06:00:55.155Z,35.97
2019-04-28T06:03:30.227Z,35.81
2019-04-28T06:06:03.194Z,35.92
2019-04-28T06:08:38.544Z,35.83
2019-04-28T06:11:12.047Z,36.06
2019-04-28T06:13:45.549Z,36.14
2019-04-28T06:16:19.589Z,35.88
2019-04-28T06:18:52.400Z,35.82
2019-04-28T06:21:24.820Z,35.70
2019-04-28T06:23:58.335Z,35.72
2019-04-28T06:26:31.868Z,35.81
2019-04-28T06:29:04.598Z,35.90
2019-04-28T06:37:45.365Z,36.17
2019-04-28T06:40:17.772Z,36.19
2019-04-28T06:42:50.449Z,36.07
2019-04-28T06:45:23.789Z,36.09
2019-04-28T06:47:56.919Z,36.05
2019-04-28T06:50:29.309Z,36.08
2019-04-28T06:53:03.021Z,36.23
2019-04-28T06:55:35.633Z,36.10
2019-04-28T06:58:09.503Z,35.97
2019-04-28T07:00:42.676Z,36.23
2019-04-28T07:03:23.066Z,36.14
2019-04-28T07:05:49.391Z,36.32
2019-04-28T07:08:27.104Z,36.14
2019-04-28T07:10:59.526Z,36.25
2019-04-28T07:13:34.512Z,36.35
2019-04-28T07:16:06.519Z,36.17
2019-04-28T07:18:39.607Z,36.19
2019-04-28T07:21:13.895Z,36.19
2019-04-28T07:23:48.714Z,36.16
2019-04-28T07:26:22.250Z,36.19
2019-04-28T07:28:54.085Z,36.15
2019-04-28T07:31:26.483Z,36.21
2019-04-28T07:33:58.139Z,36.32
2019-04-28T07:36:30.052Z,36.39
2019-04-28T07:39:03.484Z,36.36
2019-04-28T07:41:38.017Z,36.30
2019-04-28T07:44:13.337Z,36.28
2019-04-28T07:46:46.337Z,36.35
2019-04-28T07:49:18.521Z,36.46
2019-04-28T07:51:52.401Z,36.30
2019-04-28T07:54:28.468Z,36.28
2019-04-28T07:57:02.020Z,36.13
2019-04-28T07:59:41.043Z,36.04
2019-04-28T08:02:13.874Z,36.22
2019-04-28T08:04:46.719Z,36.33
2019-04-28T08:07:19.632Z,36.39
2019-04-28T08:09:52.053Z,36.50
2019-04-28T08:12:25.115Z,36.37
2019-04-28T08:14:58.712Z,36.04
2019-04-28T08:17:32.356Z,36.15
2019-04-28T08:20:07.218Z,36.37
2019-04-28T08:22:42.388Z,36.29
2019-04-28T08:25:16.050Z,36.18
2019-04-28T08:27:49.820Z,36.16
2019-04-28T08:30:25.529Z,36.20
2019-04-28T08:32:59.312Z,35.93
2019-04-28T08:35:33.236Z,36.04
2019-04-28T08:38:05.644Z,35.98
2019-04-28T08:40:39.896Z,36.23
2019-04-28T08:43:12.894Z,36.02
2019-04-28T08:45:45.979Z,36.13
2019-04-28T08:48:18.829Z,36.29
2019-04-28T08:50:51.259Z,36.20
2019-04-28T08:53:24.522Z,36.27
2019-04-28T08:55:57.572Z,36.16
2019-04-28T08:58:45.249Z,36.08
2019-04-28T09:01:20.853Z,36.27
2019-04-28T09:03:54.068Z,36.25
2019-04-28T09:06:26.424Z,36.00
2019-04-28T09:08:58.094Z,36.05
2019-04-28T09:11:30.394Z,36.32
2019-04-28T09:14:03.039Z,36.42
2019-04-28T09:16:35.672Z,36.45
2019-04-28T09:19:10.454Z,36.42
2019-04-28T09:21:46.066Z,36.37
2019-04-28T09:24:20.341Z,36.21
2019-04-28T09:26:53.463Z,36.33
2019-04-28T09:29:33.125Z,36.33
2019-04-28T09:32:05.897Z,36.22
2019-04-28T09:34:38.283Z,36.24
2019-04-28T09:37:11.189Z,36.35
2019-04-28T09:39:44.848Z,36.25
2019-04-28T09:42:26.063Z,36.26
2019-04-28T09:45:01.248Z,36.14
2019-04-28T09:47:33.344Z,36.33
2019-04-28T09:50:06.608Z,36.29
2019-04-28T09:52:39.749Z,36.12
2019-04-28T09:55:14.848Z,36.19
2019-04-28T09:57:47.823Z,36.18
2019-04-28T10:00:21.832Z,36.15
2019-04-28T10:02:55.564Z,36.17
2019-04-28T10:05:30.368Z,36.04
2019-04-28T10:08:03.591Z,35.94
2019-04-28T10:10:36.335Z,36.11
2019-04-28T10:13:08.841Z,36.12
2019-04-28T10:15:42.774Z,35.98
2019-04-28T10:18:17.856Z,35.90
2019-04-28T10:20:54.561Z,35.85
2019-04-28T10:23:26.693Z,35.86
2019-04-28T10:25:58.701Z,35.81
2019-04-28T10:28:30.971Z,36.01
2019-04-28T10:31:05.865Z,35.97
2019-04-28T10:33:39.631Z,35.80
2019-04-28T10:36:16.285Z,35.84
2019-04-28T10:38:51.385Z,35.90
2019-04-28T10:41:27.228Z,35.84
2019-04-28T10:44:01.570Z,35.89
2019-04-28T10:46:34.531Z,35.87
2019-04-28T10:49:07.917Z,35.75
2019-04-28T10:51:40.833Z,35.63
2019-04-28T10:54:13.521Z,35.69
2019-04-28T10:56:46.759Z,35.71
2019-04-28T10:59:19.225Z,35.75
2019-04-28T11:01:52.205Z,35.67
2019-04-28T11:07:16.688Z,35.62
2019-04-28T11:09:52.121Z,35.58
2019-04-28T11:12:25.976Z,35.57
2019-04-28T11:14:59.746Z,35.60
2019-04-28T11:17:32.479Z,35.51
2019-04-28T11:20:05.573Z,35.52
2019-04-28T11:22:38.389Z,35.39
2019-04-28T11:25:12.337Z,35.37
2019-04-28T11:27:46.080Z,35.36
2019-04-28T11:30:29.798Z,35.29
2019-04-28T11:33:04.222Z,35.29
2019-04-28T11:35:39.847Z,35.29
2019-04-28T11:38:14.382Z,35.27
2019-04-28T11:40:47.020Z,35.29
2019-04-28T11:43:19.951Z,35.25
2019-04-28T11:45:53.346Z,35.21
2019-04-28T11:48:25.868Z,35.17
2019-04-28T11:50:58.235Z,35.20
2019-04-28T11:53:31.188Z,35.18
2019-04-28T11:56:04.352Z,35.13
2019-04-28T11:58:37.114Z,35.13
2019-04-28T12:01:14.594Z,35.10
2019-04-28T12:03:48.134Z,35.10
2019-04-28T12:06:20.706Z,35.14
2019-04-28T12:08:55.580Z,35.04
2019-04-28T12:11:30.188Z,35.00
2019-04-28T12:14:04.305Z,35.01
2019-04-28T12:16:42.371Z,34.98
2019-04-28T12:19:16.492Z,34.96
2019-04-28T12:21:49.226Z,34.94
2019-04-28T12:24:22.689Z,34.88
2019-04-28T12:26:55.128Z,34.90
2019-04-28T12:29:28.388Z,34.87
2019-04-28T12:32:08.783Z,34.87
2019-04-28T12:34:41.931Z,34.86
2019-04-28T12:37:14.286Z,34.90
2019-04-28T12:39:48.035Z,34.86
2019-04-28T12:42:23.461Z,34.88
2019-04-28T12:44:57.279Z,34.74
2019-04-28T12:47:30.145Z,34.68
2019-04-28T12:50:04.213Z,34.66
2019-04-28T12:52:36.574Z,34.62
2019-04-28T12:55:09.177Z,34.60
2019-04-28T12:57:42.591Z,34.55
2019-04-28T13:00:18.160Z,34.52
2019-04-28T13:02:53.219Z,34.50
2019-04-28T13:05:28.957Z,34.44
2019-04-28T13:08:01.151Z,34.48
2019-04-28T13:10:34.639Z,34.50
2019-04-28T13:13:14.852Z,34.46
2019-04-28T13:15:48.506Z,34.40
2019-04-28T13:18:21.108Z,34.44
2019-04-28T13:20:53.301Z,34.34
2019-04-28T13:23:26.761Z,34.32
2019-04-28T13:25:59.970Z,34.38
2019-04-28T13:28:34.401Z,34.37
2019-04-28T13:31:07.566Z,34.36
2019-04-28T13:33:55.739Z,34.37
2019-04-28T13:36:21.247Z,34.35
2019-04-28T13:38:53.595Z,34.40
2019-04-28T13:41:25.456Z,34.36
2019-04-28T13:43:58.380Z,34.36
2019-04-28T13:46:30.639Z,34.34
2019-04-28T13:49:05.165Z,34.42
2019-04-28T13:51:41.546Z,34.39
2019-04-28T13:54:20.857Z,34.52
2019-04-28T13:56:54.037Z,34.48
2019-04-28T13:59:26.765Z,34.51
2019-04-28T14:02:01.277Z,34.50
2019-04-28T14:04:34.995Z,34.49
2019-04-28T14:07:06.961Z,34.51
2019-04-28T14:09:39.977Z,34.41
2019-04-28T14:12:16.410Z,34.46
2019-04-28T14:14:52.250Z,34.37
2019-04-28T14:32:38.806Z,34.01
2019-04-28T14:35:11.128Z,33.85
2019-04-28T14:37:43.616Z,33.81
2019-04-28T14:40:18.411Z,33.85
2019-04-28T14:42:51.029Z,33.91
2019-04-28T14:45:24.063Z,33.95
2019-04-28T14:47:58.804Z,34.00
2019-04-28T14:50:31.705Z,34.01
2019-04-28T14:53:08.510Z,34.11
2019-04-28T14:55:42.867Z,34.18
2019-04-28T14:58:16.566Z,34.12
2019-04-28T15:00:50.663Z,34.17
2019-04-28T15:03:25.266Z,34.29
2019-04-28T15:05:57.666Z,34.22
2019-04-28T15:08:37.901Z,34.23
2019-04-28T15:11:13.304Z,34.30
2019-04-28T15:13:47.701Z,34.16
2019-04-28T15:16:20.576Z,34.20
2019-04-28T15:18:55.023Z,34.20
2019-04-28T15:21:27.283Z,34.22
2019-04-28T15:23:59.711Z,34.17
2019-04-28T15:26:32.039Z,34.13
2019-04-28T15:29:04.720Z,34.27
2019-04-28T15:31:37.320Z,34.26
2019-04-28T15:34:09.706Z,34.23
2019-04-28T15:37:25.134Z,34.27
2019-04-28T15:43:28.144Z,34.30
2019-04-28T15:46:02.013Z,34.32
2019-04-28T15:48:40.339Z,34.28
2019-04-28T15:51:15.928Z,34.24
2019-04-28T15:53:49.939Z,34.24
2019-04-28T15:56:25.654Z,34.09
2019-04-28T15:58:57.774Z,34.06
2019-04-28T16:01:31.532Z,34.12
2019-04-28T16:04:07.585Z,33.96
2019-04-28T16:06:40.929Z,33.92
2019-04-28T16:09:20.972Z,34.00
2019-04-28T16:11:55.408Z,34.08
2019-04-28T16:14:36.163Z,33.96
2019-04-28T16:20:06.606Z,33.90
2019-04-28T16:22:47.447Z,33.93
2019-04-28T16:25:21.059Z,33.91
2019-04-28T16:27:56.285Z,33.90
2019-04-28T16:30:29.383Z,33.88
2019-04-28T16:33:02.441Z,33.83
2019-04-28T16:35:36.621Z,33.81
2019-04-28T16:38:20.898Z,33.82
2019-04-28T16:40:55.511Z,33.79
2019-04-28T16:43:29.386Z,33.73
2019-04-28T16:46:03.604Z,33.72
2019-04-28T16:48:36.579Z,33.67
2019-04-28T16:51:14.687Z,33.74
2019-04-28T16:53:48.167Z,33.72
2019-04-28T16:56:23.686Z,33.81
2019-04-28T16:58:59.939Z,33.67
2019-04-28T17:01:34.809Z,33.71
2019-04-28T17:04:08.244Z,33.66
2019-04-28T17:06:42.636Z,33.63
2019-04-28T17:09:16.447Z,33.65
2019-04-28T17:11:53.050Z,33.58
2019-04-28T17:14:26.333Z,33.60
2019-04-28T17:17:01.284Z,33.56
2019-04-28T17:19:34.398Z,33.55
2019-04-28T17:22:08.465Z,33.54
2019-04-28T17:24:42.405Z,33.52
2019-04-28T17:27:16.555Z,33.49
2019-04-28T17:29:51.269Z,33.49
2019-04-28T17:32:24.510Z,33.50
2019-04-28T17:34:58.443Z,33.42
2019-04-28T17:37:31.515Z,33.51
2019-04-28T17:40:04.917Z,33.44
2019-04-28T17:42:39.425Z,33.49
2019-04-28T17:45:13.709Z,33.47
2019-04-28T17:47:54.148Z,33.47
2019-04-28T17:50:28.800Z,33.45
2019-04-28T17:53:01.680Z,33.45
2019-04-28T17:55:36.323Z,33.44
2019-04-28T17:58:09.951Z,33.48
2019-04-28T18:00:43.955Z,33.39
2019-04-28T18:03:18.392Z,33.41
2019-04-28T18:05:52.332Z,33.41
2019-04-28T18:08:25.609Z,33.44
2019-04-28T18:10:58.346Z,33.47
2019-04-28T18:13:30.967Z,33.40
2019-04-28T18:16:07.541Z,33.37
2019-04-28T18:18:41.638Z,33.43
2019-04-28T18:21:18.173Z,33.37
2019-04-28T18:24:00.313Z,33.40
2019-04-28T18:26:33.719Z,33.33
2019-04-28T18:29:10.896Z,33.35
2019-04-28T18:31:45.553Z,33.33
2019-04-28T18:34:20.079Z,33.29
2019-04-28T18:36:54.002Z,33.32
2019-04-28T18:39:28.385Z,33.30
2019-04-28T18:42:03.101Z,33.41
2019-04-28T18:44:36.967Z,33.50
2019-04-28T18:47:09.917Z,33.42
2019-04-28T18:49:49.975Z,33.49
2019-04-28T18:52:28.581Z,33.43
2019-04-28T18:55:01.267Z,33.41
2019-04-28T18:57:34.283Z,33.41
2019-04-28T19:00:08.713Z,33.46
2019-04-28T19:02:43.511Z,33.40
2019-04-28T19:05:17.018Z,33.37
2019-04-28T19:07:57.786Z,33.52
2019-04-28T19:10:36.560Z,33.50
2019-04-28T19:13:17.727Z,33.42
2019-04-28T19:15:51.792Z,33.55
2019-04-28T19:18:26.907Z,33.44
2019-04-28T19:21:00.779Z,33.38
2019-04-28T19:23:33.619Z,33.41
2019-04-28T19:26:15.952Z,33.46
2019-04-28T19:28:52.285Z,33.55
2019-04-28T19:31:26.635Z,33.51
2019-04-28T19:33:59.836Z,33.45
2019-04-28T19:36:33.196Z,33.39
2019-04-28T19:39:09.862Z,33.36
2019-04-28T19:41:45.198Z,33.44
2019-04-28T19:44:18.205Z,33.38
2019-04-28T19:46:50.596Z,33.49
2019-04-28T19:49:29.827Z,33.38
2019-04-28T19:52:07.948Z,33.54
2019-04-28T19:54:50.235Z,33.57
2019-04-28T19:57:24.190Z,33.44
2019-04-28T19:59:58.201Z,33.51
2019-04-28T20:02:40.974Z,33.44
2019-04-28T20:05:14.080Z,33.62
2019-04-28T20:07:49.893Z,33.52
2019-04-28T20:10:29.887Z,33.59
2019-04-28T20:13:02.856Z,33.58
2019-04-28T20:15:34.921Z,33.52
2019-04-28T20:18:08.320Z,33.62
2019-04-28T20:20:41.366Z,33.47
2019-04-28T20:23:20.668Z,33.58
2019-04-28T20:25:54.513Z,33.56
2019-04-28T20:28:33.685Z,33.44
2019-04-28T20:31:05.994Z,33.41
2019-04-28T20:33:46.645Z,33.34
2019-04-28T20:36:20.137Z,33.47
2019-04-28T20:38:53.836Z,33.37
2019-04-28T20:41:29.595Z,33.48
2019-04-28T20:44:06.790Z,33.47
2019-04-28T20:46:46.883Z,33.55
2019-04-28T20:49:19.642Z,33.54
2019-04-28T20:51:52.621Z,33.52
2019-04-28T20:54:25.272Z,33.45
2019-04-28T20:57:03.959Z,33.33
2019-04-28T20:59:39.115Z,33.50
2019-04-28T21:02:13.012Z,33.47
2019-04-28T21:04:46.546Z,33.51
2019-04-28T21:07:20.078Z,33.47
2019-04-28T21:09:52.811Z,33.44
2019-04-28T21:12:30.210Z,33.47
2019-04-28T21:15:03.216Z,33.45
2019-04-28T21:17:39.385Z,33.56
2019-04-28T21:20:13.682Z,33.37
2019-04-28T21:22:53.252Z,33.43
2019-04-28T21:25:25.889Z,33.43
2019-04-28T21:28:06.984Z,33.42
2019-04-28T21:30:42.552Z,33.44
2019-04-28T21:33:16.717Z,33.38
2019-04-28T21:35:49.216Z,33.49
2019-04-28T21:38:23.131Z,33.32
2019-04-28T21:40:56.824Z,33.36
2019-04-28T21:43:38.649Z,33.24
2019-04-28T21:46:12.774Z,33.28
2019-04-28T21:48:53.797Z,33.30
2019-04-28T21:51:38.102Z,33.32
2019-04-28T21:54:11.036Z,33.36
2019-04-28T21:56:44.054Z,33.26
2019-04-28T21:59:18.081Z,33.39
2019-04-28T22:01:50.702Z,33.23
2019-04-28T22:04:24.028Z,33.18
2019-04-28T22:06:56.858Z,33.29
2019-04-28T22:09:36.910Z,33.32
2019-04-28T22:12:11.242Z,33.31
2019-04-28T22:14:43.726Z,33.23
2019-04-28T22:17:22.721Z,33.23
2019-04-28T22:19:55.479Z,33.19
2019-04-28T22:22:28.206Z,32.97
2019-04-28T22:25:01.987Z,33.07
2019-04-28T22:27:37.740Z,33.12
2019-04-28T22:30:11.985Z,33.03
2019-04-28T22:32:44.224Z,33.03
